Terminal Aerodrome Forecast
Issued by NWS Brownsville, TX

Home | Current Version | Previous Version | Text Only | Print | Product List | Glossary On
Versions: 1 2 3 4 5 6 7 8 9 10 11 12 13 14 15 16 17 18 19 20 21
210
FTUS44 KBRO 192340
TAFHRL
TAF
KHRL 192340Z 2000/2024 15005KT P6SM BKN015 BKN250
     FM200600 17004KT 3SM BR BKN009
     FM201000 18004KT 1SM BR OVC005
      TEMPO 2010/2014 1/4SM FG OVC002
     FM201600 20006KT P6SM BKN009
     FM202000 19008KT P6SM OVC015=

USA.gov is the U.S. government's official web portal to all federal, state and local government web resources and services.